WZZ3835 ESMS-LWSK
Flight info
| Callsign | WZZ3835 |
|---|---|
| Flight time | 2h 13m |
| Altitude | 37000 |
| Route | TELMO Z491 XELOL DCT GOMEX DCT DENKO DCT DESEN DCT VALPI DCT NIT DCT BABIT DCT OKTAS DCT REDVA UL616 KOGAT |
| Aircraft | A321/M-SDE1E2E3FGIJ1J4RWXY/LB1 |
Departure
| Time | 2026-04-22 15:38 |
|---|---|
| Airport | Malmö Sturup Airport (ESMS) |
Arrival
| Time | 2026-04-22 17:51 |
|---|---|
| Airport | Skopje International Airport (LWSK) |
| Time | Latitude | Longitude | Altitude | Speed | Heading |
|---|---|---|---|---|---|
| 2026-04-22 15:21 | 55.54101 | 13.36850 | 231 ft | 0 kts | 172° |
| 2026-04-22 15:30 | 55.54118 | 13.36847 | 231 ft | 4 kts | 173° |
| 2026-04-22 15:30 | 55.54143 | 13.36839 | 233 ft | 4 kts | 153° |
| 2026-04-22 15:30 | 55.54161 | 13.36810 | 232 ft | 4 kts | 105° |
| 2026-04-22 15:30 | 55.54163 | 13.36777 | 231 ft | 1 kts | 84° |
| 2026-04-22 15:31 | 55.54162 | 13.36772 | 231 ft | 0 kts | 84° |
| 2026-04-22 15:33 | 55.54163 | 13.36785 | 234 ft | 4 kts | 84° |
| 2026-04-22 15:34 | 55.54169 | 13.36884 | 232 ft | 12 kts | 84° |
| 2026-04-22 15:34 | 55.54184 | 13.37052 | 233 ft | 15 kts | 72° |
| 2026-04-22 15:34 | 55.54168 | 13.37212 | 232 ft | 16 kts | 156° |
| 2026-04-22 15:34 | 55.54038 | 13.37242 | 232 ft | 21 kts | 173° |
| 2026-04-22 15:35 | 55.53889 | 13.37272 | 234 ft | 22 kts | 173° |
| 2026-04-22 15:35 | 55.53730 | 13.37305 | 231 ft | 24 kts | 172° |
| 2026-04-22 15:35 | 55.53564 | 13.37343 | 233 ft | 25 kts | 174° |
| 2026-04-22 15:35 | 55.53389 | 13.37376 | 231 ft | 26 kts | 174° |
| 2026-04-22 15:36 | 55.53207 | 13.37414 | 232 ft | 27 kts | 173° |
| 2026-04-22 15:36 | 55.53032 | 13.37448 | 233 ft | 19 kts | 174° |
| 2026-04-22 15:36 | 55.52968 | 13.37510 | 232 ft | 5 kts | 86° |
| 2026-04-22 15:36 | 55.52978 | 13.37608 | 234 ft | 11 kts | 80° |
| 2026-04-22 15:37 | 55.52982 | 13.37723 | 240 ft | 7 kts | 58° |
| 2026-04-22 15:37 | 55.53074 | 13.37732 | 241 ft | 36 kts | 353° |
| 2026-04-22 15:37 | 55.53592 | 13.37626 | 238 ft | 111 kts | 353° |
| 2026-04-22 15:37 | 55.54501 | 13.37435 | 571 ft | 135 kts | 348° |
| 2026-04-22 15:38 | 55.55432 | 13.37259 | 1360 ft | 134 kts | 349° |
| 2026-04-22 15:38 | 55.57375 | 13.36867 | 2414 ft | 160 kts | 349° |
| 2026-04-22 15:38 | 55.58555 | 13.36628 | 2753 ft | 181 kts | 350° |
| 2026-04-22 15:39 | 55.59863 | 13.36368 | 3270 ft | 194 kts | 352° |
| 2026-04-22 15:39 | 55.61219 | 13.36134 | 4071 ft | 198 kts | 358° |
| 2026-04-22 15:39 | 55.62527 | 13.36946 | 4857 ft | 211 kts | 38° |
| 2026-04-22 15:39 | 55.63224 | 13.39283 | 5629 ft | 229 kts | 79° |
| 2026-04-22 15:40 | 55.62891 | 13.42084 | 6417 ft | 244 kts | 117° |
| 2026-04-22 15:40 | 55.61822 | 13.44463 | 7206 ft | 250 kts | 131° |
| 2026-04-22 15:40 | 55.60577 | 13.46571 | 7978 ft | 253 kts | 134° |
| 2026-04-22 15:40 | 55.59292 | 13.48720 | 8755 ft | 256 kts | 132° |
| 2026-04-22 15:41 | 55.58027 | 13.50949 | 9559 ft | 259 kts | 133° |
| 2026-04-22 15:41 | 55.56495 | 13.52733 | 10264 ft | 269 kts | 154° |
| 2026-04-22 15:41 | 55.54646 | 13.53691 | 10661 ft | 290 kts | 173° |
| 2026-04-22 15:41 | 55.52555 | 13.53993 | 10919 ft | 313 kts | 175° |
| 2026-04-22 15:42 | 55.50300 | 13.54314 | 11152 ft | 337 kts | 175° |
| 2026-04-22 15:42 | 55.47927 | 13.54670 | 11469 ft | 355 kts | 174° |
| 2026-04-22 15:42 | 55.45441 | 13.55050 | 12114 ft | 361 kts | 174° |
| 2026-04-22 15:42 | 55.42937 | 13.55621 | 12834 ft | 364 kts | 165° |
| 2026-04-22 15:43 | 55.40572 | 13.57209 | 13553 ft | 365 kts | 148° |
| 2026-04-22 15:43 | 55.38528 | 13.59829 | 14266 ft | 364 kts | 134° |
| 2026-04-22 15:43 | 55.36657 | 13.62841 | 14957 ft | 365 kts | 135° |
| 2026-04-22 15:43 | 55.34769 | 13.65847 | 15646 ft | 368 kts | 135° |
| 2026-04-22 15:44 | 55.32856 | 13.68866 | 16333 ft | 371 kts | 135° |
| 2026-04-22 15:44 | 55.30951 | 13.71862 | 17003 ft | 374 kts | 135° |
| 2026-04-22 15:44 | 55.29005 | 13.74921 | 17706 ft | 377 kts | 135° |
| 2026-04-22 15:44 | 55.27045 | 13.78003 | 18349 ft | 380 kts | 135° |
| 2026-04-22 15:45 | 55.25064 | 13.81109 | 18944 ft | 383 kts | 135° |
| 2026-04-22 15:45 | 55.23069 | 13.84230 | 19550 ft | 386 kts | 135° |
| 2026-04-22 15:45 | 55.21059 | 13.87369 | 20150 ft | 388 kts | 135° |
| 2026-04-22 15:45 | 55.19038 | 13.90527 | 20738 ft | 392 kts | 135° |
| 2026-04-22 15:46 | 55.16996 | 13.93715 | 21326 ft | 395 kts | 135° |
| 2026-04-22 15:46 | 55.14967 | 13.96881 | 21905 ft | 398 kts | 135° |
| 2026-04-22 15:46 | 55.12896 | 14.00107 | 22505 ft | 400 kts | 135° |
| 2026-04-22 15:46 | 55.10805 | 14.03351 | 23091 ft | 403 kts | 136° |
| 2026-04-22 15:47 | 55.08701 | 14.06612 | 23663 ft | 406 kts | 135° |
| 2026-04-22 15:47 | 55.06624 | 14.09957 | 24157 ft | 406 kts | 130° |
| 2026-04-22 15:47 | 55.04849 | 14.13773 | 24632 ft | 404 kts | 121° |
| 2026-04-22 15:47 | 55.03425 | 14.17977 | 25158 ft | 402 kts | 116° |
| 2026-04-22 15:48 | 55.02059 | 14.22235 | 25667 ft | 403 kts | 116° |
| 2026-04-22 15:48 | 55.00688 | 14.26487 | 26190 ft | 403 kts | 116° |
| 2026-04-22 15:48 | 54.99328 | 14.30678 | 26698 ft | 403 kts | 116° |
| 2026-04-22 15:48 | 54.97946 | 14.34918 | 27203 ft | 404 kts | 116° |
| 2026-04-22 15:49 | 54.96513 | 14.39132 | 27675 ft | 406 kts | 120° |
| 2026-04-22 15:49 | 54.94713 | 14.42965 | 28145 ft | 413 kts | 130° |
| 2026-04-22 15:49 | 54.92506 | 14.46224 | 28614 ft | 421 kts | 140° |
| 2026-04-22 15:49 | 54.89969 | 14.48834 | 29115 ft | 426 kts | 146° |
| 2026-04-22 15:50 | 54.87366 | 14.51283 | 29585 ft | 426 kts | 145° |
| 2026-04-22 15:50 | 54.84758 | 14.53745 | 30017 ft | 427 kts | 145° |
| 2026-04-22 15:50 | 54.82161 | 14.56129 | 30398 ft | 431 kts | 148° |
| 2026-04-22 15:50 | 54.79337 | 14.58042 | 30746 ft | 438 kts | 153° |
| 2026-04-22 15:51 | 54.76464 | 14.59815 | 31085 ft | 440 kts | 153° |
| 2026-04-22 15:51 | 54.73574 | 14.61594 | 31420 ft | 442 kts | 153° |
| 2026-04-22 15:51 | 54.70675 | 14.63375 | 31760 ft | 443 kts | 152° |
| 2026-04-22 15:51 | 54.67776 | 14.65150 | 32228 ft | 441 kts | 152° |
| 2026-04-22 15:52 | 54.64889 | 14.66919 | 32705 ft | 439 kts | 152° |
| 2026-04-22 15:52 | 54.62015 | 14.68675 | 33228 ft | 437 kts | 151° |
| 2026-04-22 15:52 | 54.59158 | 14.70417 | 33713 ft | 435 kts | 150° |
| 2026-04-22 15:52 | 54.56349 | 14.72131 | 34176 ft | 433 kts | 150° |
| 2026-04-22 15:53 | 54.53515 | 14.73860 | 34554 ft | 432 kts | 150° |
| 2026-04-22 15:53 | 54.50678 | 14.75591 | 34865 ft | 432 kts | 150° |
| 2026-04-22 15:53 | 54.47842 | 14.77326 | 35171 ft | 433 kts | 151° |
| 2026-04-22 15:53 | 54.44999 | 14.79062 | 35478 ft | 434 kts | 151° |
| 2026-04-22 15:54 | 54.42151 | 14.80794 | 35783 ft | 435 kts | 152° |
| 2026-04-22 15:54 | 54.39297 | 14.82523 | 36077 ft | 436 kts | 152° |
| 2026-04-22 15:54 | 54.36470 | 14.84229 | 36367 ft | 436 kts | 152° |
| 2026-04-22 15:54 | 54.33605 | 14.85952 | 36672 ft | 437 kts | 153° |
| 2026-04-22 15:55 | 54.30736 | 14.87675 | 36954 ft | 437 kts | 153° |
| 2026-04-22 15:55 | 54.27862 | 14.89403 | 37165 ft | 439 kts | 153° |
| 2026-04-22 15:55 | 54.22151 | 14.92994 | 37222 ft | 436 kts | 152° |
| 2026-04-22 15:56 | 54.16500 | 14.96722 | 37221 ft | 435 kts | 151° |
| 2026-04-22 15:56 | 54.10877 | 15.00403 | 37226 ft | 436 kts | 152° |
| 2026-04-22 15:57 | 54.05190 | 15.04058 | 37231 ft | 437 kts | 152° |
| 2026-04-22 15:57 | 53.99497 | 15.07692 | 37226 ft | 437 kts | 152° |
| 2026-04-22 15:58 | 53.93841 | 15.11308 | 37231 ft | 438 kts | 152° |
| 2026-04-22 15:58 | 53.88139 | 15.14939 | 37242 ft | 438 kts | 152° |
| 2026-04-22 15:59 | 53.82430 | 15.18566 | 37246 ft | 438 kts | 152° |
| 2026-04-22 15:59 | 53.76719 | 15.22190 | 37265 ft | 438 kts | 152° |
| 2026-04-22 16:00 | 53.71043 | 15.25795 | 37253 ft | 439 kts | 152° |
| 2026-04-22 16:00 | 53.65356 | 15.29513 | 37249 ft | 438 kts | 151° |
| 2026-04-22 16:01 | 53.59675 | 15.33267 | 37241 ft | 439 kts | 151° |
| 2026-04-22 16:01 | 53.53987 | 15.36998 | 37243 ft | 439 kts | 151° |
| 2026-04-22 16:02 | 53.48324 | 15.40674 | 37262 ft | 439 kts | 152° |
| 2026-04-22 16:02 | 53.42620 | 15.44366 | 37250 ft | 440 kts | 152° |
| 2026-04-22 16:03 | 53.36910 | 15.48056 | 37244 ft | 440 kts | 152° |
| 2026-04-22 16:03 | 53.31194 | 15.51743 | 37243 ft | 440 kts | 152° |
| 2026-04-22 16:04 | 53.25476 | 15.55426 | 37251 ft | 440 kts | 152° |
| 2026-04-22 16:04 | 53.19793 | 15.59073 | 37236 ft | 441 kts | 152° |
| 2026-04-22 16:05 | 53.14058 | 15.62736 | 37232 ft | 442 kts | 152° |
| 2026-04-22 16:05 | 53.08311 | 15.66394 | 37226 ft | 442 kts | 152° |
| 2026-04-22 16:06 | 53.02600 | 15.70029 | 37228 ft | 443 kts | 152° |
| 2026-04-22 16:06 | 52.96843 | 15.73680 | 37230 ft | 443 kts | 152° |
| 2026-04-22 16:07 | 52.91079 | 15.77319 | 37230 ft | 443 kts | 153° |
| 2026-04-22 16:07 | 52.85309 | 15.80948 | 37228 ft | 444 kts | 153° |
| 2026-04-22 16:08 | 52.79577 | 15.84580 | 37241 ft | 444 kts | 152° |
| 2026-04-22 16:08 | 52.73897 | 15.88535 | 37226 ft | 443 kts | 150° |
| 2026-04-22 16:09 | 52.68254 | 15.92618 | 37224 ft | 443 kts | 150° |
| 2026-04-22 16:09 | 52.62586 | 15.96635 | 37239 ft | 444 kts | 151° |
| 2026-04-22 16:10 | 52.56918 | 16.00557 | 37222 ft | 445 kts | 151° |
| 2026-04-22 16:10 | 52.51199 | 16.04491 | 37220 ft | 446 kts | 151° |
| 2026-04-22 16:11 | 52.45484 | 16.08442 | 37219 ft | 446 kts | 151° |
| 2026-04-22 16:11 | 52.39763 | 16.12399 | 37222 ft | 446 kts | 151° |
| 2026-04-22 16:12 | 52.34074 | 16.16310 | 37218 ft | 447 kts | 151° |
| 2026-04-22 16:12 | 52.28339 | 16.20241 | 37214 ft | 447 kts | 151° |
| 2026-04-22 16:13 | 52.22604 | 16.24160 | 37214 ft | 447 kts | 151° |
| 2026-04-22 16:13 | 52.16865 | 16.28073 | 37215 ft | 447 kts | 151° |
| 2026-04-22 16:14 | 52.11163 | 16.31947 | 37232 ft | 447 kts | 152° |
| 2026-04-22 16:14 | 52.05418 | 16.35844 | 37222 ft | 448 kts | 152° |
| 2026-04-22 16:15 | 51.99664 | 16.39736 | 37216 ft | 448 kts | 152° |
| 2026-04-22 16:15 | 51.93906 | 16.43620 | 37207 ft | 448 kts | 151° |
| 2026-04-22 16:16 | 51.88181 | 16.47479 | 37212 ft | 449 kts | 152° |
| 2026-04-22 16:16 | 51.82414 | 16.51349 | 37232 ft | 449 kts | 152° |
| 2026-04-22 16:17 | 51.76636 | 16.55209 | 37216 ft | 449 kts | 152° |
| 2026-04-22 16:17 | 51.70853 | 16.59058 | 37214 ft | 450 kts | 152° |
| 2026-04-22 16:18 | 51.65103 | 16.62878 | 37217 ft | 450 kts | 152° |
| 2026-04-22 16:18 | 51.59313 | 16.66726 | 37220 ft | 450 kts | 152° |
| 2026-04-22 16:19 | 51.53517 | 16.70563 | 37228 ft | 451 kts | 152° |
| 2026-04-22 16:19 | 51.47711 | 16.74382 | 37212 ft | 451 kts | 152° |
| 2026-04-22 16:20 | 51.41935 | 16.78166 | 37209 ft | 452 kts | 152° |
| 2026-04-22 16:20 | 51.36121 | 16.81985 | 37208 ft | 452 kts | 152° |
| 2026-04-22 16:21 | 51.30304 | 16.85798 | 37211 ft | 452 kts | 152° |
| 2026-04-22 16:21 | 51.24480 | 16.89597 | 37225 ft | 452 kts | 153° |
| 2026-04-22 16:22 | 51.15773 | 16.95255 | 37224 ft | 453 kts | 152° |
| 2026-04-22 16:23 | 51.07016 | 17.00928 | 37214 ft | 453 kts | 152° |
| 2026-04-22 16:23 | 51.01171 | 17.04698 | 37222 ft | 453 kts | 153° |
| 2026-04-22 16:24 | 50.92441 | 17.10307 | 37218 ft | 453 kts | 153° |
| 2026-04-22 16:25 | 50.86596 | 17.14053 | 37216 ft | 453 kts | 153° |
| 2026-04-22 16:25 | 50.77815 | 17.19659 | 37220 ft | 454 kts | 153° |
| 2026-04-22 16:26 | 50.72002 | 17.23363 | 37225 ft | 454 kts | 153° |
| 2026-04-22 16:26 | 50.66153 | 17.27109 | 37221 ft | 454 kts | 153° |
| 2026-04-22 16:27 | 50.60295 | 17.30834 | 37221 ft | 454 kts | 153° |
| 2026-04-22 16:27 | 50.54434 | 17.34529 | 37216 ft | 454 kts | 153° |
| 2026-04-22 16:28 | 50.48567 | 17.38210 | 37226 ft | 454 kts | 154° |
| 2026-04-22 16:28 | 50.42743 | 17.41870 | 37226 ft | 454 kts | 153° |
| 2026-04-22 16:29 | 50.36871 | 17.45542 | 37219 ft | 455 kts | 154° |
| 2026-04-22 16:29 | 50.30991 | 17.49189 | 37217 ft | 455 kts | 154° |
| 2026-04-22 16:30 | 50.24991 | 17.52405 | 37217 ft | 460 kts | 163° |
| 2026-04-22 16:30 | 50.18785 | 17.54595 | 37218 ft | 461 kts | 163° |
| 2026-04-22 16:31 | 50.12537 | 17.56813 | 37215 ft | 461 kts | 163° |
| 2026-04-22 16:31 | 50.06282 | 17.59039 | 37212 ft | 461 kts | 163° |
| 2026-04-22 16:32 | 50.00022 | 17.61251 | 37225 ft | 461 kts | 163° |
| 2026-04-22 16:32 | 49.93802 | 17.63440 | 37214 ft | 462 kts | 163° |
| 2026-04-22 16:33 | 49.87535 | 17.65647 | 37211 ft | 462 kts | 163° |
| 2026-04-22 16:33 | 49.81266 | 17.67838 | 37212 ft | 462 kts | 163° |
| 2026-04-22 16:34 | 49.74991 | 17.70029 | 37210 ft | 462 kts | 163° |
| 2026-04-22 16:34 | 49.68716 | 17.72223 | 37215 ft | 462 kts | 163° |
| 2026-04-22 16:35 | 49.62487 | 17.74403 | 37212 ft | 462 kts | 163° |
| 2026-04-22 16:35 | 49.56210 | 17.76587 | 37211 ft | 462 kts | 163° |
| 2026-04-22 16:36 | 49.49934 | 17.78759 | 37212 ft | 462 kts | 163° |
| 2026-04-22 16:36 | 49.43654 | 17.80916 | 37209 ft | 463 kts | 163° |
| 2026-04-22 16:37 | 49.37414 | 17.83066 | 37208 ft | 463 kts | 163° |
| 2026-04-22 16:37 | 49.31124 | 17.85232 | 37207 ft | 463 kts | 163° |
| 2026-04-22 16:38 | 49.24835 | 17.87389 | 37218 ft | 463 kts | 164° |
| 2026-04-22 16:38 | 49.18541 | 17.89538 | 37204 ft | 464 kts | 164° |
| 2026-04-22 16:39 | 49.12281 | 17.91669 | 37201 ft | 464 kts | 164° |
| 2026-04-22 16:39 | 49.05972 | 17.93806 | 37209 ft | 465 kts | 164° |
| 2026-04-22 16:40 | 48.99581 | 17.95401 | 37205 ft | 468 kts | 172° |
| 2026-04-22 16:41 | 48.89856 | 17.96744 | 37196 ft | 468 kts | 172° |
| 2026-04-22 16:41 | 48.83413 | 17.97631 | 37192 ft | 468 kts | 172° |
| 2026-04-22 16:42 | 48.76924 | 17.98522 | 37192 ft | 468 kts | 172° |
| 2026-04-22 16:42 | 48.70437 | 17.99413 | 37188 ft | 468 kts | 172° |
| 2026-04-22 16:43 | 48.63944 | 18.00298 | 37185 ft | 468 kts | 172° |
| 2026-04-22 16:43 | 48.57491 | 18.01173 | 37187 ft | 469 kts | 172° |
| 2026-04-22 16:44 | 48.50995 | 18.02065 | 37210 ft | 469 kts | 172° |
| 2026-04-22 16:44 | 48.44494 | 18.02945 | 37196 ft | 469 kts | 173° |
| 2026-04-22 16:45 | 48.37992 | 18.03821 | 37186 ft | 469 kts | 172° |
| 2026-04-22 16:45 | 48.31534 | 18.04693 | 37189 ft | 469 kts | 173° |
| 2026-04-22 16:46 | 48.25167 | 18.06569 | 37180 ft | 466 kts | 162° |
| 2026-04-22 16:46 | 48.18888 | 18.09035 | 37172 ft | 467 kts | 163° |
| 2026-04-22 16:47 | 48.12587 | 18.11446 | 37174 ft | 467 kts | 163° |
| 2026-04-22 16:47 | 48.07348 | 18.13450 | 37179 ft | 468 kts | 163° |
| 2026-04-22 16:48 | 48.00023 | 18.16277 | 37173 ft | 468 kts | 163° |
| 2026-04-22 16:48 | 47.93716 | 18.18713 | 37172 ft | 469 kts | 163° |
| 2026-04-22 16:49 | 47.87399 | 18.21141 | 37180 ft | 469 kts | 163° |
| 2026-04-22 16:49 | 47.81126 | 18.23544 | 37169 ft | 469 kts | 163° |
| 2026-04-22 16:50 | 47.74802 | 18.25965 | 37173 ft | 469 kts | 163° |
| 2026-04-22 16:50 | 47.68476 | 18.28376 | 37165 ft | 469 kts | 163° |
| 2026-04-22 16:51 | 47.62147 | 18.30780 | 37167 ft | 470 kts | 163° |
| 2026-04-22 16:51 | 47.55873 | 18.33158 | 37172 ft | 470 kts | 164° |
| 2026-04-22 16:52 | 47.49539 | 18.35547 | 37168 ft | 470 kts | 164° |
| 2026-04-22 16:52 | 47.43204 | 18.37936 | 37158 ft | 470 kts | 164° |
| 2026-04-22 16:53 | 47.36863 | 18.40321 | 37157 ft | 470 kts | 164° |
| 2026-04-22 16:53 | 47.30568 | 18.42687 | 37156 ft | 470 kts | 164° |
| 2026-04-22 16:54 | 47.24229 | 18.45063 | 37161 ft | 470 kts | 164° |
| 2026-04-22 16:54 | 47.17885 | 18.47426 | 37180 ft | 470 kts | 164° |
| 2026-04-22 16:55 | 47.11541 | 18.49794 | 37173 ft | 470 kts | 165° |
| 2026-04-22 16:55 | 47.05243 | 18.52139 | 37175 ft | 470 kts | 165° |
| 2026-04-22 16:56 | 46.98900 | 18.54489 | 37172 ft | 470 kts | 165° |
| 2026-04-22 16:56 | 46.92552 | 18.56833 | 37171 ft | 470 kts | 165° |
| 2026-04-22 16:57 | 46.86201 | 18.59183 | 37161 ft | 471 kts | 165° |
| 2026-04-22 16:57 | 46.79890 | 18.61509 | 37162 ft | 471 kts | 165° |
| 2026-04-22 16:58 | 46.74565 | 18.63465 | 37182 ft | 471 kts | 165° |
| 2026-04-22 16:58 | 46.67174 | 18.66171 | 37165 ft | 471 kts | 165° |
| 2026-04-22 16:59 | 46.60816 | 18.68493 | 37164 ft | 471 kts | 165° |
| 2026-04-22 16:59 | 46.54453 | 18.70813 | 37167 ft | 471 kts | 165° |
| 2026-04-22 17:00 | 46.48132 | 18.73109 | 37169 ft | 472 kts | 165° |
| 2026-04-22 17:00 | 46.38582 | 18.76579 | 37166 ft | 472 kts | 166° |
| 2026-04-22 17:01 | 46.32209 | 18.78880 | 37178 ft | 472 kts | 166° |
| 2026-04-22 17:01 | 46.25878 | 18.81154 | 37175 ft | 472 kts | 166° |
| 2026-04-22 17:02 | 46.19507 | 18.83446 | 37168 ft | 472 kts | 166° |
| 2026-04-22 17:02 | 46.13138 | 18.85749 | 37168 ft | 472 kts | 166° |
| 2026-04-22 17:03 | 46.06767 | 18.88051 | 37166 ft | 472 kts | 166° |
| 2026-04-22 17:03 | 46.00389 | 18.90328 | 37166 ft | 472 kts | 166° |
| 2026-04-22 17:04 | 45.94068 | 18.92664 | 37176 ft | 472 kts | 161° |
| 2026-04-22 17:04 | 45.88111 | 18.96615 | 37173 ft | 472 kts | 153° |
| 2026-04-22 17:05 | 45.82259 | 19.00909 | 37172 ft | 472 kts | 153° |
| 2026-04-22 17:05 | 45.76402 | 19.05187 | 37164 ft | 472 kts | 153° |
| 2026-04-22 17:06 | 45.70585 | 19.09443 | 37167 ft | 473 kts | 153° |
| 2026-04-22 17:06 | 45.64728 | 19.13730 | 37187 ft | 473 kts | 153° |
| 2026-04-22 17:07 | 45.58863 | 19.18001 | 37183 ft | 473 kts | 153° |
| 2026-04-22 17:07 | 45.52999 | 19.22261 | 37162 ft | 473 kts | 153° |
| 2026-04-22 17:08 | 45.47167 | 19.26479 | 37166 ft | 473 kts | 153° |
| 2026-04-22 17:08 | 45.41293 | 19.30733 | 37169 ft | 474 kts | 153° |
| 2026-04-22 17:09 | 45.35408 | 19.34977 | 37173 ft | 474 kts | 153° |
| 2026-04-22 17:09 | 45.29523 | 19.39221 | 37163 ft | 474 kts | 153° |
| 2026-04-22 17:10 | 45.23675 | 19.43427 | 37167 ft | 475 kts | 154° |
| 2026-04-22 17:10 | 45.17779 | 19.47645 | 37171 ft | 475 kts | 154° |
| 2026-04-22 17:11 | 45.11875 | 19.51859 | 37174 ft | 475 kts | 154° |
| 2026-04-22 17:11 | 45.05971 | 19.56071 | 37180 ft | 475 kts | 154° |
| 2026-04-22 17:12 | 45.00071 | 19.60271 | 37183 ft | 475 kts | 154° |
| 2026-04-22 17:12 | 44.94206 | 19.64427 | 37178 ft | 475 kts | 154° |
| 2026-04-22 17:13 | 44.88167 | 19.68129 | 37179 ft | 473 kts | 161° |
| 2026-04-22 17:13 | 44.81955 | 19.71228 | 37162 ft | 473 kts | 162° |
| 2026-04-22 17:14 | 44.75742 | 19.74324 | 37172 ft | 474 kts | 162° |
| 2026-04-22 17:14 | 44.69571 | 19.77396 | 37170 ft | 474 kts | 162° |
| 2026-04-22 17:15 | 44.63360 | 19.80484 | 37174 ft | 473 kts | 162° |
| 2026-04-22 17:15 | 44.57148 | 19.83561 | 37163 ft | 474 kts | 162° |
| 2026-04-22 17:16 | 44.50930 | 19.86629 | 37160 ft | 474 kts | 162° |
| 2026-04-22 17:16 | 44.44714 | 19.89696 | 37173 ft | 474 kts | 162° |
| 2026-04-22 17:17 | 44.38536 | 19.92747 | 37161 ft | 474 kts | 162° |
| 2026-04-22 17:17 | 44.32320 | 19.95805 | 37162 ft | 474 kts | 163° |
| 2026-04-22 17:18 | 44.26093 | 19.98844 | 37161 ft | 474 kts | 163° |
| 2026-04-22 17:18 | 44.19861 | 20.01881 | 37161 ft | 474 kts | 163° |
| 2026-04-22 17:19 | 44.07433 | 20.07955 | 37157 ft | 475 kts | 163° |
| 2026-04-22 17:20 | 43.94944 | 20.14046 | 37138 ft | 476 kts | 164° |
| 2026-04-22 17:21 | 43.86617 | 20.18052 | 37139 ft | 476 kts | 164° |
| 2026-04-22 17:22 | 43.76206 | 20.23052 | 37154 ft | 477 kts | 164° |
| 2026-04-22 17:23 | 43.67814 | 20.27063 | 37135 ft | 477 kts | 165° |
| 2026-04-22 17:23 | 43.58435 | 20.31540 | 37148 ft | 478 kts | 165° |
| 2026-04-22 17:24 | 43.52146 | 20.34536 | 37131 ft | 478 kts | 165° |
| 2026-04-22 17:24 | 43.45858 | 20.37533 | 37142 ft | 479 kts | 165° |
| 2026-04-22 17:25 | 43.39562 | 20.40530 | 37144 ft | 479 kts | 165° |
| 2026-04-22 17:25 | 43.33264 | 20.43513 | 37143 ft | 479 kts | 165° |
| 2026-04-22 17:26 | 43.27004 | 20.46476 | 37124 ft | 479 kts | 165° |
| 2026-04-22 17:26 | 43.23848 | 20.47969 | 36779 ft | 482 kts | 165° |
| 2026-04-22 17:26 | 43.20634 | 20.49481 | 35733 ft | 493 kts | 165° |
| 2026-04-22 17:27 | 43.17372 | 20.51010 | 34900 ft | 497 kts | 166° |
| 2026-04-22 17:27 | 43.14101 | 20.52547 | 34292 ft | 495 kts | 166° |
| 2026-04-22 17:27 | 43.10854 | 20.54074 | 33598 ft | 493 kts | 167° |
| 2026-04-22 17:27 | 43.07630 | 20.55592 | 33115 ft | 487 kts | 167° |
| 2026-04-22 17:28 | 43.04437 | 20.57095 | 32550 ft | 484 kts | 167° |
| 2026-04-22 17:28 | 43.01266 | 20.58586 | 32014 ft | 481 kts | 167° |
| 2026-04-22 17:28 | 42.98174 | 20.60105 | 31554 ft | 476 kts | 166° |
| 2026-04-22 17:28 | 42.95084 | 20.61715 | 31006 ft | 473 kts | 165° |
| 2026-04-22 17:29 | 42.92037 | 20.63360 | 30463 ft | 470 kts | 164° |
| 2026-04-22 17:29 | 42.89017 | 20.65007 | 29953 ft | 465 kts | 164° |
| 2026-04-22 17:29 | 42.86031 | 20.66630 | 29407 ft | 459 kts | 165° |
| 2026-04-22 17:29 | 42.83080 | 20.68219 | 28895 ft | 453 kts | 165° |
| 2026-04-22 17:30 | 42.80171 | 20.69766 | 28428 ft | 446 kts | 165° |
| 2026-04-22 17:30 | 42.77295 | 20.71280 | 27951 ft | 440 kts | 165° |
| 2026-04-22 17:30 | 42.74459 | 20.72763 | 27512 ft | 434 kts | 165° |
| 2026-04-22 17:30 | 42.71700 | 20.74201 | 27063 ft | 428 kts | 165° |
| 2026-04-22 17:31 | 42.68935 | 20.75642 | 26603 ft | 423 kts | 166° |
| 2026-04-22 17:31 | 42.66206 | 20.77062 | 26187 ft | 418 kts | 166° |
| 2026-04-22 17:31 | 42.63503 | 20.78469 | 25767 ft | 414 kts | 166° |
| 2026-04-22 17:31 | 42.60823 | 20.79867 | 25337 ft | 411 kts | 166° |
| 2026-04-22 17:32 | 42.58163 | 20.81257 | 24896 ft | 409 kts | 166° |
| 2026-04-22 17:32 | 42.55518 | 20.82635 | 24467 ft | 406 kts | 166° |
| 2026-04-22 17:32 | 42.52884 | 20.84004 | 24023 ft | 405 kts | 166° |
| 2026-04-22 17:32 | 42.50292 | 20.85349 | 23590 ft | 404 kts | 165° |
| 2026-04-22 17:33 | 42.47683 | 20.86706 | 23073 ft | 401 kts | 165° |
| 2026-04-22 17:33 | 42.45093 | 20.88055 | 22620 ft | 397 kts | 165° |
| 2026-04-22 17:33 | 42.42531 | 20.89389 | 22160 ft | 393 kts | 165° |
| 2026-04-22 17:33 | 42.39994 | 20.90708 | 21700 ft | 389 kts | 164° |
| 2026-04-22 17:34 | 42.37477 | 20.92013 | 21243 ft | 385 kts | 164° |
| 2026-04-22 17:34 | 42.34983 | 20.93303 | 20772 ft | 382 kts | 164° |
| 2026-04-22 17:34 | 42.32508 | 20.94581 | 20314 ft | 379 kts | 163° |
| 2026-04-22 17:34 | 42.30055 | 20.95849 | 19849 ft | 376 kts | 163° |
| 2026-04-22 17:35 | 42.27655 | 20.97091 | 19401 ft | 373 kts | 162° |
| 2026-04-22 17:35 | 42.25241 | 20.98340 | 18929 ft | 370 kts | 163° |
| 2026-04-22 17:35 | 42.22851 | 20.99575 | 18490 ft | 366 kts | 163° |
| 2026-04-22 17:35 | 42.20482 | 21.00793 | 18008 ft | 363 kts | 162° |
| 2026-04-22 17:36 | 42.18137 | 21.02001 | 17543 ft | 358 kts | 162° |
| 2026-04-22 17:36 | 42.15826 | 21.03195 | 17106 ft | 354 kts | 162° |
| 2026-04-22 17:36 | 42.13618 | 21.04613 | 16684 ft | 351 kts | 150° |
| 2026-04-22 17:36 | 42.11718 | 21.06657 | 16259 ft | 349 kts | 135° |
| 2026-04-22 17:37 | 42.10259 | 21.09183 | 15846 ft | 346 kts | 121° |
| 2026-04-22 17:37 | 42.09240 | 21.12097 | 15437 ft | 343 kts | 112° |
| 2026-04-22 17:37 | 42.08349 | 21.15058 | 15017 ft | 340 kts | 112° |
| 2026-04-22 17:37 | 42.07456 | 21.17988 | 14608 ft | 337 kts | 113° |
| 2026-04-22 17:38 | 42.06568 | 21.20883 | 14205 ft | 333 kts | 113° |
| 2026-04-22 17:38 | 42.05683 | 21.23750 | 13801 ft | 330 kts | 113° |
| 2026-04-22 17:38 | 42.04809 | 21.26582 | 13381 ft | 326 kts | 113° |
| 2026-04-22 17:38 | 42.03949 | 21.29375 | 12995 ft | 321 kts | 113° |
| 2026-04-22 17:39 | 42.03110 | 21.32096 | 12610 ft | 317 kts | 113° |
| 2026-04-22 17:39 | 42.02269 | 21.34819 | 12237 ft | 314 kts | 112° |
| 2026-04-22 17:39 | 42.00608 | 21.40178 | 11469 ft | 307 kts | 112° |
| 2026-04-22 17:40 | 41.99787 | 21.42825 | 11038 ft | 306 kts | 112° |
| 2026-04-22 17:40 | 41.98973 | 21.45455 | 10663 ft | 303 kts | 112° |
| 2026-04-22 17:40 | 41.98165 | 21.48059 | 10287 ft | 301 kts | 112° |
| 2026-04-22 17:40 | 41.97366 | 21.50628 | 10024 ft | 294 kts | 112° |
| 2026-04-22 17:41 | 41.96597 | 21.53103 | 9739 ft | 288 kts | 111° |
| 2026-04-22 17:41 | 41.95835 | 21.55565 | 9490 ft | 285 kts | 111° |
| 2026-04-22 17:41 | 41.95073 | 21.58018 | 9141 ft | 285 kts | 112° |
| 2026-04-22 17:41 | 41.94212 | 21.60407 | 8759 ft | 285 kts | 122° |
| 2026-04-22 17:42 | 41.92908 | 21.62390 | 8399 ft | 284 kts | 139° |
| 2026-04-22 17:42 | 41.91225 | 21.63768 | 8026 ft | 284 kts | 156° |
| 2026-04-22 17:42 | 41.89329 | 21.64523 | 7648 ft | 284 kts | 165° |
| 2026-04-22 17:42 | 41.87412 | 21.65178 | 7271 ft | 284 kts | 164° |
| 2026-04-22 17:43 | 41.85501 | 21.65839 | 6889 ft | 283 kts | 163° |
| 2026-04-22 17:43 | 41.83648 | 21.66575 | 6521 ft | 281 kts | 154° |
| 2026-04-22 17:43 | 41.82024 | 21.67963 | 6139 ft | 275 kts | 134° |
| 2026-04-22 17:43 | 41.80839 | 21.69924 | 5778 ft | 268 kts | 118° |
| 2026-04-22 17:44 | 41.79871 | 21.72045 | 5425 ft | 265 kts | 118° |
| 2026-04-22 17:44 | 41.78915 | 21.74126 | 5084 ft | 260 kts | 118° |
| 2026-04-22 17:44 | 41.77858 | 21.76037 | 4867 ft | 252 kts | 137° |
| 2026-04-22 17:44 | 41.76318 | 21.76989 | 4772 ft | 242 kts | 171° |
| 2026-04-22 17:45 | 41.74715 | 21.76684 | 4637 ft | 229 kts | 205° |
| 2026-04-22 17:45 | 41.73540 | 21.75384 | 4539 ft | 215 kts | 238° |
| 2026-04-22 17:45 | 41.73026 | 21.73599 | 4442 ft | 207 kts | 267° |
| 2026-04-22 17:45 | 41.73204 | 21.71732 | 4355 ft | 201 kts | 296° |
| 2026-04-22 17:46 | 41.73990 | 21.70239 | 4272 ft | 196 kts | 322° |
| 2026-04-22 17:46 | 41.75178 | 21.69417 | 4184 ft | 192 kts | 346° |
| 2026-04-22 17:46 | 41.76472 | 21.68973 | 4086 ft | 192 kts | 347° |
| 2026-04-22 17:46 | 41.77765 | 21.68528 | 4014 ft | 192 kts | 347° |
| 2026-04-22 17:47 | 41.79057 | 21.68082 | 4002 ft | 192 kts | 347° |
| 2026-04-22 17:47 | 41.80294 | 21.67653 | 4000 ft | 174 kts | 347° |
| 2026-04-22 17:47 | 41.81426 | 21.67260 | 3830 ft | 164 kts | 347° |
| 2026-04-22 17:47 | 41.82502 | 21.66887 | 3620 ft | 160 kts | 347° |
| 2026-04-22 17:48 | 41.83570 | 21.66518 | 3376 ft | 156 kts | 347° |
| 2026-04-22 17:48 | 41.84603 | 21.66159 | 3143 ft | 152 kts | 345° |
| 2026-04-22 17:48 | 41.85613 | 21.65809 | 2941 ft | 149 kts | 345° |
| 2026-04-22 17:48 | 41.86590 | 21.65470 | 2692 ft | 143 kts | 345° |
| 2026-04-22 17:49 | 41.87544 | 21.65139 | 2477 ft | 141 kts | 344° |
| 2026-04-22 17:49 | 41.88489 | 21.64811 | 2270 ft | 139 kts | 344° |
| 2026-04-22 17:49 | 41.89428 | 21.64485 | 2074 ft | 139 kts | 344° |
| 2026-04-22 17:49 | 41.90346 | 21.64166 | 1879 ft | 138 kts | 345° |
| 2026-04-22 17:50 | 41.91272 | 21.63844 | 1679 ft | 137 kts | 345° |
| 2026-04-22 17:50 | 41.92196 | 21.63523 | 1465 ft | 137 kts | 344° |
| 2026-04-22 17:50 | 41.93117 | 21.63205 | 1265 ft | 137 kts | 343° |
| 2026-04-22 17:50 | 41.94037 | 21.62881 | 1088 ft | 136 kts | 345° |
| 2026-04-22 17:51 | 41.94949 | 21.62561 | 872 ft | 134 kts | 345° |
| 2026-04-22 17:51 | 41.95812 | 21.62268 | 789 ft | 115 kts | 345° |
| 2026-04-22 17:51 | 41.96370 | 21.62070 | 790 ft | 40 kts | 345° |
| 2026-04-22 17:51 | 41.96496 | 21.62083 | 791 ft | 16 kts | 60° |
| 2026-04-22 17:52 | 41.96524 | 21.62209 | 791 ft | 12 kts | 76° |
| 2026-04-22 17:52 | 41.96492 | 21.62290 | 793 ft | 11 kts | 159° |
| 2026-04-22 17:52 | 41.96407 | 21.62325 | 793 ft | 14 kts | 163° |
| 2026-04-22 17:52 | 41.96303 | 21.62363 | 792 ft | 17 kts | 165° |
| 2026-04-22 17:53 | 41.96190 | 21.62403 | 792 ft | 14 kts | 165° |
| 2026-04-22 17:53 | 41.96128 | 21.62443 | 792 ft | 9 kts | 111° |
| 2026-04-22 17:53 | 41.96110 | 21.62504 | 793 ft | 8 kts | 145° |
| 2026-04-22 17:53 | 41.96064 | 21.62547 | 793 ft | 7 kts | 107° |
| 2026-04-22 17:54 | 41.96067 | 21.62585 | 793 ft | 1 kts | 77° |
| 2026-04-22 17:54 | 41.96068 | 21.62586 | 793 ft | 0 kts | 77° |